Time;durP1;ratioP1;P1;durP2;ratioP2;P2;SDS_P1;SDS_P2;PMS_P1;PMS_P2;Temp;Humidity;BMP_temperature;BMP_pressure;BME280_temperature;BME280_humidity;BME280_pressure;Samples;Min_cycle;Max_cycle;Signal;HPM_P1;HPM_P2
2022/07/13 00:01:46;;;;;;;3.97;0.90;;;20.60;72.90;;;;;;5032900;28;20102;-70
2022/07/13 00:04:12;;;;;;;1.20;0.95;;;20.60;73.20;;;;;;5032628;28;20123;-65
2022/07/13 00:06:38;;;;;;;2.60;1.10;;;20.60;72.90;;;;;;5032427;28;20068;-84
2022/07/13 00:09:04;;;;;;;4.55;1.20;;;20.60;72.70;;;;;;5032397;28;20110;-65
2022/07/13 00:11:30;;;;;;;4.68;1.00;;;20.70;72.20;;;;;;5032376;28;20049;-65
2022/07/13 00:13:56;;;;;;;1.92;1.20;;;20.70;72.00;;;;;;5032411;28;20582;-65
2022/07/13 00:16:21;;;;;;;1.15;0.73;;;20.60;71.80;;;;;;5032455;28;20037;-65
2022/07/13 00:18:47;;;;;;;1.65;1.00;;;20.70;71.80;;;;;;5032577;28;20416;-66
2022/07/13 00:21:13;;;;;;;2.55;0.70;;;20.80;71.30;;;;;;5032643;28;20138;-65
2022/07/13 00:23:39;;;;;;;0.70;0.68;;;20.80;71.50;;;;;;5032439;28;20041;-66
2022/07/13 00:26:05;;;;;;;5.25;1.00;;;20.80;71.10;;;;;;5032077;28;20048;-65
2022/07/13 00:28:32;;;;;;;1.00;0.90;;;20.70;71.20;;;;;;5015271;28;20045;-65
2022/07/13 00:30:57;;;;;;;1.40;0.90;;;20.60;72.00;;;;;;5035998;28;20041;-68
2022/07/13 00:33:23;;;;;;;2.72;0.90;;;20.50;71.60;;;;;;5036011;28;20049;-65
2022/07/13 00:35:49;;;;;;;1.40;0.90;;;20.50;71.90;;;;;;5036041;28;20116;-65
2022/07/13 00:38:15;;;;;;;1.70;1.13;;;20.50;72.00;;;;;;5035865;28;20041;-64
2022/07/13 00:40:40;;;;;;;0.80;0.70;;;20.50;71.90;;;;;;5035835;28;20100;-65
2022/07/13 00:43:06;;;;;;;0.80;0.80;;;20.50;72.00;;;;;;5035874;28;20506;-66
2022/07/13 00:45:32;;;;;;;2.78;0.82;;;20.50;72.00;;;;;;5018244;28;20373;-64
2022/07/13 00:47:58;;;;;;;1.67;0.93;;;20.40;72.00;;;;;;5036003;28;20531;-67
2022/07/13 00:50:25;;;;;;;1.65;1.13;;;20.30;73.10;;;;;;5018011;28;20071;-65
2022/07/13 00:52:51;;;;;;;1.58;0.90;;;20.30;73.50;;;;;;5018048;28;20124;-65
2022/07/13 00:55:17;;;;;;;1.10;0.90;;;20.50;72.10;;;;;;5035741;28;20117;-65
2022/07/13 00:57:43;;;;;;;1.30;1.00;;;20.70;70.80;;;;;;5035837;28;20033;-65
2022/07/13 01:00:12;;;;;;;2.15;0.70;;;20.80;70.60;;;;;;5035703;28;20048;-66
2022/07/13 01:02:43;;;;;;;2.38;0.85;;;20.70;71.30;;;;;;5035641;28;20041;-66
2022/07/13 01:05:13;;;;;;;1.48;0.80;;;20.40;71.20;;;;;;5035495;28;20033;-67
2022/07/13 01:07:40;;;;;;;2.50;0.90;;;20.50;70.70;;;;;;5035272;28;20111;-65
2022/07/13 01:10:08;;;;;;;1.35;0.80;;;20.40;71.30;;;;;;5035346;28;20048;-68
2022/07/13 01:12:35;;;;;;;0.82;0.70;;;20.50;71.50;;;;;;5017677;28;20868;-64
2022/07/13 01:15:03;;;;;;;2.15;0.80;;;20.20;71.30;;;;;;5034571;28;20041;-64
2022/07/13 01:17:31;;;;;;;1.20;1.00;;;20.20;71.40;;;;;;5035019;28;20408;-65
2022/07/13 01:19:58;;;;;;;0.88;0.82;;;20.20;71.30;;;;;;5034919;28;20578;-64
2022/07/13 01:22:32;;;;;;;2.47;0.68;;;20.20;70.90;;;;;;5034770;28;20128;-64
2022/07/13 01:24:58;;;;;;;1.95;0.80;;;20.20;70.40;;;;;;5035036;28;20083;-74
2022/07/13 01:27:24;;;;;;;2.03;0.75;;;20.20;69.90;;;;;;5035150;28;20049;-64
2022/07/13 01:29:51;;;;;;;1.42;0.80;;;20.30;70.30;;;;;;5035029;28;20033;-65
2022/07/13 01:32:17;;;;;;;1.52;0.85;;;20.40;69.80;;;;;;5035078;28;20497;-65
2022/07/13 01:34:43;;;;;;;0.60;0.60;;;20.40;69.80;;;;;;5034640;28;20037;-64
2022/07/13 01:37:09;;;;;;;2.35;0.98;;;20.30;72.60;;;;;;5034583;28;20048;-64
2022/07/13 01:39:36;;;;;;;2.05;0.90;;;20.30;71.20;;;;;;5035106;28;20053;-65
2022/07/13 01:42:02;;;;;;;2.58;1.13;;;20.10;73.00;;;;;;5035001;28;20580;-64
2022/07/13 01:44:28;;;;;;;1.02;0.70;;;20.20;71.70;;;;;;5034930;28;20455;-65
2022/07/13 01:46:54;;;;;;;1.58;0.60;;;20.20;72.10;;;;;;5034740;28;20563;-65
2022/07/13 01:49:19;;;;;;;1.23;0.80;;;20.30;71.40;;;;;;5034773;28;20049;-66
2022/07/13 01:51:45;;;;;;;1.38;0.90;;;20.10;72.10;;;;;;5034778;28;20087;-65
2022/07/13 01:54:11;;;;;;;1.20;0.80;;;20.00;72.30;;;;;;5034554;28;20049;-65
2022/07/13 01:56:37;;;;;;;2.03;0.82;;;20.00;71.80;;;;;;5034448;28;20412;-66
2022/07/13 01:59:02;;;;;;;1.17;0.90;;;20.10;71.90;;;;;;5033464;28;20531;-65
2022/07/13 02:01:28;;;;;;;1.60;0.95;;;19.90;72.40;;;;;;5033991;28;20044;-66
2022/07/13 02:03:54;;;;;;;1.10;0.73;;;19.80;72.50;;;;;;5023860;28;20574;-68
2022/07/13 02:06:20;;;;;;;1.95;0.60;;;19.90;72.00;;;;;;5028175;28;20045;-69
2022/07/13 02:08:46;;;;;;;0.90;0.63;;;19.70;72.20;;;;;;5032742;28;20568;-65
2022/07/13 02:11:19;;;;;;;2.25;0.77;;;19.70;72.10;;;;;;5034221;28;20049;-66
2022/07/13 02:13:45;;;;;;;0.70;0.60;;;19.70;72.30;;;;;;5034336;28;20046;-65
2022/07/13 02:16:15;;;;;;;2.75;0.60;;;19.70;72.20;;;;;;5034232;28;20041;-65
2022/07/13 02:18:41;;;;;;;2.15;0.93;;;19.70;72.20;;;;;;5034068;28;20045;-66
2022/07/13 02:21:07;;;;;;;2.13;0.90;;;19.50;73.60;;;;;;5033992;28;20043;-65
2022/07/13 02:23:33;;;;;;;0.93;0.70;;;19.50;72.10;;;;;;5034011;28;20407;-66
2022/07/13 02:25:58;;;;;;;0.93;0.70;;;19.70;72.70;;;;;;5034092;28;20623;-66
2022/07/13 02:28:24;;;;;;;2.28;0.80;;;19.20;74.90;;;;;;5033963;28;20056;-83
2022/07/13 02:30:50;;;;;;;0.95;0.60;;;18.90;74.50;;;;;;5015998;28;20033;-68
2022/07/13 02:33:16;;;;;;;0.98;0.88;;;18.90;74.60;;;;;;5033723;28;20041;-65
2022/07/13 02:35:41;;;;;;;4.07;0.75;;;18.90;74.30;;;;;;5016153;28;20103;-66
2022/07/13 02:38:07;;;;;;;2.25;0.70;;;19.20;74.40;;;;;;5033900;28;20051;-67
2022/07/13 02:40:33;;;;;;;0.88;0.77;;;19.20;73.80;;;;;;5033799;28;20037;-66
2022/07/13 02:42:59;;;;;;;1.85;1.00;;;19.10;74.50;;;;;;5033770;28;20439;-66
2022/07/13 02:45:25;;;;;;;4.10;0.90;;;19.00;74.20;;;;;;5033668;28;20041;-65
2022/07/13 02:47:51;;;;;;;0.82;0.82;;;19.10;74.40;;;;;;5033493;28;20136;-65
2022/07/13 02:50:17;;;;;;;0.90;0.80;;;18.90;75.30;;;;;;5033793;28;20149;-72
2022/07/13 02:52:43;;;;;;;1.27;0.90;;;19.10;73.60;;;;;;5033248;28;20045;-65
2022/07/13 02:55:09;;;;;;;1.00;0.90;;;18.70;75.60;;;;;;5033722;28;20041;-66
2022/07/13 02:57:35;;;;;;;1.88;0.77;;;18.90;75.30;;;;;;5033631;28;20037;-65
2022/07/13 03:00:01;;;;;;;3.63;0.90;;;18.80;75.50;;;;;;5033579;28;20151;-84
2022/07/13 03:02:26;;;;;;;1.10;1.00;;;18.60;76.30;;;;;;5033325;28;20032;-72
2022/07/13 03:04:52;;;;;;;3.80;1.10;;;18.60;77.20;;;;;;5033697;28;20135;-65
2022/07/13 03:07:18;;;;;;;2.75;0.80;;;18.70;76.40;;;;;;5033486;28;20056;-65
2022/07/13 03:09:44;;;;;;;2.40;0.95;;;19.00;75.20;;;;;;5033322;28;20108;-77
2022/07/13 03:12:09;;;;;;;1.23;0.80;;;18.70;76.40;;;;;;5033060;28;20041;-66
2022/07/13 03:14:36;;;;;;;1.10;0.70;;;18.70;76.70;;;;;;5033324;28;20037;-69
2022/07/13 03:17:02;;;;;;;4.35;0.90;;;18.80;76.30;;;;;;5033280;28;20049;-65
2022/07/13 03:19:28;;;;;;;1.88;0.70;;;18.70;76.50;;;;;;5033372;28;20045;-67
2022/07/13 03:21:54;;;;;;;1.35;0.93;;;18.30;77.70;;;;;;5015359;28;20037;-66
2022/07/13 03:24:20;;;;;;;2.03;0.98;;;18.30;76.90;;;;;;5033161;28;20120;-65
2022/07/13 03:26:45;;;;;;;2.47;1.10;;;18.60;76.40;;;;;;5032991;28;20033;-65
2022/07/13 03:29:11;;;;;;;3.08;0.90;;;18.60;77.60;;;;;;5015145;28;20463;-65
2022/07/13 03:31:37;;;;;;;1.52;0.93;;;18.30;78.00;;;;;;5032715;28;20489;-65
2022/07/13 03:34:03;;;;;;;2.05;1.10;;;18.20;78.30;;;;;;5032876;28;20041;-65
2022/07/13 03:36:30;;;;;;;3.67;1.00;;;18.20;78.20;;;;;;5033099;28;20064;-65
2022/07/13 03:38:56;;;;;;;2.25;1.00;;;18.10;78.30;;;;;;5032992;28;20034;-65
2022/07/13 03:41:22;;;;;;;4.07;0.90;;;18.20;78.60;;;;;;5032998;28;20045;-64
2022/07/13 03:43:48;;;;;;;1.98;1.10;;;18.10;79.00;;;;;;5032761;28;20045;-66
2022/07/13 03:46:13;;;;;;;1.55;1.05;;;18.00;79.20;;;;;;5032523;28;20041;-65
2022/07/13 03:48:39;;;;;;;2.30;1.30;;;18.20;78.70;;;;;;5032545;28;20591;-64
2022/07/13 03:51:05;;;;;;;5.50;0.95;;;18.30;78.30;;;;;;5032120;28;20120;-65
2022/07/13 03:53:31;;;;;;;3.30;0.90;;;18.40;78.10;;;;;;5032397;28;20112;-65
2022/07/13 03:55:56;;;;;;;3.88;1.13;;;18.50;77.70;;;;;;5032969;28;20125;-69
2022/07/13 03:58:22;;;;;;;6.38;1.40;;;18.70;76.90;;;;;;5032883;28;20045;-73
2022/07/13 04:00:48;;;;;;;1.60;0.93;;;18.80;76.90;;;;;;5032719;28;20045;-65
2022/07/13 04:03:14;;;;;;;0.98;0.80;;;18.70;77.50;;;;;;5032995;28;20439;-65
2022/07/13 04:05:39;;;;;;;3.47;0.90;;;18.70;78.60;;;;;;5036808;28;20037;-68
2022/07/13 04:08:05;;;;;;;3.08;0.90;;;18.30;79.60;;;;;;5018935;28;20057;-65
2022/07/13 04:10:31;;;;;;;1.45;0.80;;;18.30;78.70;;;;;;5036679;28;20045;-65
2022/07/13 04:12:58;;;;;;;3.20;0.80;;;18.30;77.80;;;;;;5018821;28;20033;-64
2022/07/13 04:15:24;;;;;;;1.35;1.10;;;18.50;79.10;;;;;;5037026;28;20041;-65
2022/07/13 04:17:50;;;;;;;3.38;1.00;;;18.30;78.40;;;;;;5036666;28;20171;-65
2022/07/13 04:20:16;;;;;;;2.00;0.82;;;18.60;77.60;;;;;;5036418;28;20049;-65
2022/07/13 04:22:41;;;;;;;1.92;0.80;;;18.50;78.00;;;;;;5036366;28;20044;-65
2022/07/13 04:25:08;;;;;;;1.58;1.02;;;18.60;77.60;;;;;;5036348;28;20458;-64
2022/07/13 04:27:34;;;;;;;1.27;0.75;;;18.60;77.40;;;;;;5018337;28;20442;-64
2022/07/13 04:30:01;;;;;;;1.13;0.80;;;18.70;77.30;;;;;;5036440;28;20041;-66
2022/07/13 04:32:26;;;;;;;1.95;1.10;;;18.30;79.10;;;;;;5036297;28;20095;-65
2022/07/13 04:34:52;;;;;;;1.42;1.17;;;18.20;79.80;;;;;;5036246;28;20522;-65
2022/07/13 04:37:18;;;;;;;10.48;1.52;;;18.20;79.90;;;;;;5036173;28;20045;-65
2022/07/13 04:39:43;;;;;;;2.42;1.58;;;18.40;79.30;;;;;;5036101;28;20139;-64
2022/07/13 04:42:09;;;;;;;3.50;1.10;;;18.50;78.70;;;;;;5036053;28;20037;-67
2022/07/13 04:44:35;;;;;;;1.85;1.00;;;18.50;78.90;;;;;;5035970;28;20127;-65
2022/07/13 04:47:01;;;;;;;3.00;1.00;;;18.40;78.80;;;;;;5035930;28;20558;-65
2022/07/13 04:49:27;;;;;;;2.38;1.13;;;18.50;78.50;;;;;;5035991;28;20049;-65
2022/07/13 04:51:53;;;;;;;2.58;1.10;;;18.70;78.60;;;;;;5035932;28;20087;-66
2022/07/13 04:54:19;;;;;;;0.98;0.70;;;18.70;78.50;;;;;;5035801;28;20041;-65
2022/07/13 04:56:45;;;;;;;3.70;1.23;;;18.80;78.60;;;;;;5035819;28;20428;-65
2022/07/13 04:59:12;;;;;;;1.80;1.02;;;18.70;80.20;;;;;;5035715;28;20082;-80
2022/07/13 05:01:38;;;;;;;1.10;0.80;;;18.60;79.30;;;;;;5035863;28;20094;-64
2022/07/13 05:04:05;;;;;;;1.35;1.00;;;18.80;79.90;;;;;;5035744;28;20404;-66
2022/07/13 05:06:31;;;;;;;1.27;0.88;;;18.60;81.50;;;;;;5035640;28;20577;-65
2022/07/13 05:08:57;;;;;;;3.50;1.40;;;18.60;81.10;;;;;;5035735;28;20038;-65
2022/07/13 05:11:23;;;;;;;1.98;0.95;;;18.60;84.10;;;;;;5035515;28;20034;-65
2022/07/13 05:13:49;;;;;;;1.60;1.05;;;18.70;83.30;;;;;;5035469;28;20175;-78
2022/07/13 05:16:14;;;;;;;2.92;1.10;;;18.40;83.00;;;;;;5035144;28;20107;-72
2022/07/13 05:18:40;;;;;;;1.13;1.00;;;18.60;82.10;;;;;;5035370;28;20433;-65
2022/07/13 05:21:06;;;;;;;0.98;0.88;;;18.60;81.40;;;;;;5035353;28;20049;-65
2022/07/13 05:23:33;;;;;;;1.70;1.20;;;18.60;80.80;;;;;;5035404;28;20052;-65
2022/07/13 05:25:59;;;;;;;3.33;1.10;;;19.00;79.90;;;;;;5035158;28;20665;-66
2022/07/13 05:28:24;;;;;;;1.10;0.80;;;19.40;80.60;;;;;;5017236;28;20080;-83
2022/07/13 05:30:50;;;;;;;1.15;0.90;;;19.80;80.90;;;;;;5035130;28;20045;-65
2022/07/13 05:33:20;;;;;;;4.00;0.98;;;19.80;79.50;;;;;;5034942;28;20045;-65
2022/07/13 05:35:46;;;;;;;1.42;1.00;;;;;;;;;;5035034;28;20041;-64
2022/07/13 05:38:12;;;;;;;3.42;1.10;;;20.20;98.60;;;;;;5034957;28;20049;-65
2022/07/13 05:40:38;;;;;;;1.88;1.35;;;20.10;78.90;;;;;;5034829;28;20049;-67
2022/07/13 05:43:05;;;;;;;3.95;1.05;;;20.00;77.80;;;;;;5034822;28;20052;-78
2022/07/13 05:45:30;;;;;;;2.65;1.23;;;20.10;78.90;;;;;;5034664;28;20033;-65
2022/07/13 05:47:56;;;;;;;1.23;1.10;;;20.20;78.90;;;;;;5034612;28;20456;-65
2022/07/13 05:50:22;;;;;;;2.30;0.98;;;20.30;78.10;;;;;;5034856;28;20049;-65
2022/07/13 05:52:47;;;;;;;3.10;1.15;;;20.50;79.50;;;;;;5034897;28;20520;-65
2022/07/13 05:55:13;;;;;;;4.93;1.10;;;20.70;78.10;;;;;;5034528;28;20412;-72
2022/07/13 05:57:39;;;;;;;1.77;0.85;;;20.90;76.50;;;;;;5034763;28;20123;-67
2022/07/13 06:00:10;;;;;;;3.63;1.10;;;21.20;77.20;;;;;;5016524;28;20518;-66
2022/07/13 06:02:37;;;;;;;4.38;1.08;;;22.00;78.30;;;;;;5034526;28;20045;-69
2022/07/13 06:05:03;;;;;;;1.23;1.10;;;22.00;78.10;;;;;;5034094;28;20046;-66
2022/07/13 06:07:29;;;;;;;1.52;0.98;;;21.70;79.30;;;;;;5016511;28;20073;-65
2022/07/13 06:09:58;;;;;;;1.83;0.95;;;21.90;78.80;;;;;;5030778;28;20838;-66
2022/07/13 06:12:25;;;;;;;1.92;1.00;;;22.30;79.70;;;;;;5032909;28;20053;-66
2022/07/13 06:14:52;;;;;;;3.67;1.10;;;23.10;79.50;;;;;;5034359;28;20044;-66
2022/07/13 06:17:18;;;;;;;4.30;1.00;;;23.40;81.50;;;;;;5034175;28;20456;-69
2022/07/13 06:19:44;;;;;;;3.33;1.25;;;23.20;83.50;;;;;;5016336;28;20037;-73
2022/07/13 06:22:10;;;;;;;6.55;1.35;;;23.40;83.40;;;;;;5033859;28;20095;-66
2022/07/13 06:24:36;;;;;;;2.28;1.20;;;23.70;83.40;;;;;;5033896;28;20374;-79
2022/07/13 06:27:02;;;;;;;3.20;1.48;;;23.90;88.20;;;;;;5033165;28;20053;-66
2022/07/13 06:29:27;;;;;;;1.98;1.15;;;24.10;81.90;;;;;;5034074;28;20069;-70
2022/07/13 06:31:53;;;;;;;6.07;0.95;;;24.20;83.10;;;;;;5034039;28;20037;-72
2022/07/13 06:34:19;;;;;;;7.53;1.30;;;23.70;81.90;;;;;;5016175;28;20033;-70
2022/07/13 06:36:45;;;;;;;2.70;1.00;;;23.90;81.80;;;;;;5015803;28;20132;-65
2022/07/13 06:39:11;;;;;;;5.57;1.38;;;23.80;81.00;;;;;;5033531;28;20053;-70
2022/07/13 06:41:37;;;;;;;4.65;1.20;;;23.80;81.00;;;;;;5033768;28;20032;-80
2022/07/13 06:44:03;;;;;;;5.70;1.50;;;23.60;81.50;;;;;;5033623;28;20037;-66
2022/07/13 06:46:28;;;;;;;1.90;1.13;;;23.50;82.00;;;;;;5033603;28;20048;-66
2022/07/13 06:48:54;;;;;;;1.52;1.00;;;23.90;80.20;;;;;;5015746;28;20045;-66
2022/07/13 06:51:20;;;;;;;6.05;1.23;;;24.10;76.90;;;;;;5033386;28;20041;-66
2022/07/13 06:53:46;;;;;;;4.82;1.40;;;24.20;81.70;;;;;;5033445;28;20045;-66
2022/07/13 06:56:11;;;;;;;1.83;1.17;;;24.20;80.40;;;;;;5033585;28;20447;-66
2022/07/13 06:58:37;;;;;;;4.22;1.27;;;24.30;79.60;;;;;;5033653;28;20037;-66
2022/07/13 07:01:04;;;;;;;6.28;1.27;;;24.70;77.00;;;;;;5033437;28;20065;-65
2022/07/13 07:03:29;;;;;;;5.53;1.40;;;25.40;74.20;;;;;;5033423;28;20416;-66
2022/07/13 07:05:55;;;;;;;3.65;1.10;;;25.60;79.70;;;;;;5032872;28;20029;-66
2022/07/13 07:08:21;;;;;;;7.18;1.80;;;25.70;80.70;;;;;;5032953;28;20053;-66
2022/07/13 07:10:47;;;;;;;4.93;1.70;;;25.90;83.40;;;;;;5015345;28;20037;-66
2022/07/13 07:13:14;;;;;;;4.47;1.10;;;26.10;84.10;;;;;;5033025;28;20534;-68
2022/07/13 07:15:39;;;;;;;4.70;1.23;;;26.30;82.10;;;;;;5033349;28;20562;-66
2022/07/13 07:18:05;;;;;;;7.22;1.55;;;26.40;81.20;;;;;;5033291;28;20029;-67
2022/07/13 07:20:31;;;;;;;1.65;1.23;;;26.30;81.10;;;;;;5032962;28;20155;-67
2022/07/13 07:22:57;;;;;;;3.85;1.17;;;26.00;79.90;;;;;;5015419;28;20069;-66
2022/07/13 07:25:23;;;;;;;3.20;1.20;;;26.40;77.00;;;;;;5015253;28;20047;-66
2022/07/13 07:27:50;;;;;;;3.58;1.30;;;26.90;76.60;;;;;;5015156;28;20065;-66
2022/07/13 07:30:16;;;;;;;3.83;1.10;;;27.30;75.80;;;;;;5033029;28;20137;-78
2022/07/13 07:32:42;;;;;;;3.63;1.13;;;27.50;73.20;;;;;;5033105;28;20053;-67
2022/07/13 07:35:09;;;;;;;1.42;0.82;;;27.60;71.40;;;;;;5042246;28;20411;-67
2022/07/13 07:37:37;;;;;;;5.22;1.10;;;27.10;68.60;;;;;;5032923;28;20048;-74
2022/07/13 07:40:04;;;;;;;3.42;1.58;;;26.80;70.20;;;;;;5035701;28;20048;-66
2022/07/13 07:42:29;;;;;;;1.90;0.90;;;27.10;69.30;;;;;;5052764;28;20044;-66
2022/07/13 07:44:56;;;;;;;3.17;0.85;;;27.30;69.50;;;;;;5052717;28;20059;-65
2022/07/13 07:47:25;;;;;;;3.08;1.10;;;27.90;69.40;;;;;;5048107;28;20132;-66
2022/07/13 07:49:54;;;;;;;2.10;1.23;;;28.00;74.00;;;;;;5032805;28;20041;-65
2022/07/13 07:52:21;;;;;;;3.60;1.10;;;27.90;74.90;;;;;;5032951;28;20512;-65
2022/07/13 07:54:48;;;;;;;1.83;1.25;;;28.10;74.70;;;;;;5032611;28;20049;-65
2022/07/13 07:57:14;;;;;;;2.70;1.33;;;28.20;73.50;;;;;;5033272;28;20038;-66
2022/07/13 07:59:41;;;;;;;1.48;1.13;;;28.20;73.80;;;;;;5032935;28;20069;-68
2022/07/13 08:02:08;;;;;;;1.95;0.98;;;28.10;71.80;;;;;;5032843;28;20079;-66
2022/07/13 08:04:34;;;;;;;2.72;1.55;;;28.10;73.60;;;;;;5032687;28;20381;-66
2022/07/13 08:07:00;;;;;;;4.05;1.02;;;28.00;71.50;;;;;;5049423;28;20155;-66
2022/07/13 08:09:27;;;;;;;1.52;1.20;;;28.10;70.40;;;;;;5040501;28;20092;-78
2022/07/13 08:11:52;;;;;;;1.58;1.00;;;28.40;73.60;;;;;;5032343;28;20084;-66
2022/07/13 08:14:19;;;;;;;3.22;1.10;;;28.50;72.70;;;;;;5032268;28;20451;-66
2022/07/13 08:16:44;;;;;;;6.97;1.25;;;28.80;72.40;;;;;;5032337;28;20041;-66
2022/07/13 08:19:10;;;;;;;1.60;1.17;;;29.00;71.80;;;;;;5032362;28;20044;-66
2022/07/13 08:21:37;;;;;;;5.75;1.20;;;29.10;69.70;;;;;;5032298;28;20412;-66
2022/07/13 08:24:03;;;;;;;5.00;1.10;;;28.80;70.40;;;;;;5032419;28;20044;-76
2022/07/13 08:26:30;;;;;;;3.65;1.10;;;29.00;68.40;;;;;;5032370;28;20436;-70
2022/07/13 08:28:57;;;;;;;1.52;0.90;;;28.80;69.00;;;;;;5032390;28;20061;-66
2022/07/13 08:31:24;;;;;;;3.75;1.20;;;28.90;68.30;;;;;;5032390;28;20041;-65
2022/07/13 08:39:19;;;;;;;4.90;1.08;;;28.60;69.70;;;;;;5032509;28;20049;-66
2022/07/13 08:41:46;;;;;;;2.80;1.20;;;29.00;71.60;;;;;;5032386;28;20041;-65
2022/07/13 08:44:12;;;;;;;3.55;1.17;;;29.30;70.00;;;;;;5032465;28;20408;-67
2022/07/13 08:46:39;;;;;;;2.50;1.10;;;29.60;70.80;;;;;;5032409;28;20081;-65
2022/07/13 08:49:09;;;;;;;2.15;1.27;;;29.60;68.30;;;;;;5014717;28;20148;-65
2022/07/13 08:51:36;;;;;;;4.78;1.50;;;29.20;70.10;;;;;;5036013;28;20038;-65
2022/07/13 08:54:04;;;;;;;9.20;1.20;;;29.30;69.20;;;;;;5035830;28;20042;-66
2022/07/13 08:56:31;;;;;;;4.03;1.05;;;29.30;71.30;;;;;;5035435;28;20415;-68
2022/07/13 08:58:56;;;;;;;3.15;1.10;;;29.40;68.80;;;;;;5035597;28;20117;-66
2022/07/13 09:01:22;;;;;;;3.95;1.08;;;29.40;68.70;;;;;;5018026;28;20132;-69
2022/07/13 09:03:48;;;;;;;1.40;1.00;;;29.50;67.60;;;;;;5035739;28;20083;-65
2022/07/13 09:06:39;;;;;;;3.83;1.25;;;29.90;69.90;;;;;;5035131;28;20034;-66
2022/07/13 09:09:06;;;;;;;4.50;0.85;;;29.50;69.10;;;;;;5017387;28;20099;-66
2022/07/13 09:11:33;;;;;;;3.58;0.85;;;29.70;68.50;;;;;;5035541;28;20049;-66
2022/07/13 09:13:58;;;;;;;2.42;0.93;;;29.70;66.80;;;;;;5035416;28;20700;-66
2022/07/13 09:16:26;;;;;;;1.95;1.25;;;29.90;68.50;;;;;;5035309;28;20056;-74
2022/07/13 09:19:00;;;;;;;3.13;1.33;;;30.30;67.60;;;;;;5035331;28;20448;-65
2022/07/13 09:21:27;;;;;;;4.25;1.38;;;29.90;68.00;;;;;;5035177;28;20520;-66
2022/07/13 09:23:58;;;;;;;5.40;1.05;;;29.70;68.40;;;;;;5035352;28;20108;-66
2022/07/13 09:26:42;;;;;;;6.68;1.20;;;30.00;67.50;;;;;;5034897;28;20033;-72
2022/07/13 09:29:11;;;;;;;1.80;0.93;;;29.50;65.70;;;;;;5017259;28;20045;-66
2022/07/13 09:31:52;;;;;;;4.32;0.88;;;30.40;69.00;;;;;;5035348;28;20049;-74
2022/07/13 09:34:18;;;;;;;4.13;1.35;;;30.70;66.50;;;;;;5035084;28;20045;-65
2022/07/13 09:36:44;;;;;;;5.38;1.20;;;30.70;68.10;;;;;;5034923;28;20396;-65
2022/07/13 09:39:10;;;;;;;1.77;1.25;;;30.80;66.40;;;;;;5034886;28;20041;-66
2022/07/13 09:41:37;;;;;;;2.47;0.90;;;29.90;65.30;;;;;;5034490;28;20037;-67
2022/07/13 09:47:04;;;;;;;4.57;1.10;;;30.10;65.50;;;;;;5032778;28;20084;-66
2022/07/13 09:49:39;;;;;;;2.05;1.15;;;30.30;66.50;;;;;;5033619;28;20052;-66
2022/07/13 09:52:07;;;;;;;3.80;1.20;;;30.50;69.20;;;;;;5014764;28;20536;-67
2022/07/13 09:54:35;;;;;;;1.52;1.10;;;30.60;68.40;;;;;;5034169;28;20129;-66
2022/07/13 09:57:07;;;;;;;4.53;1.45;;;30.30;67.30;;;;;;5033917;28;20049;-67
2022/07/13 09:59:35;;;;;;;5.43;1.77;;;30.30;67.20;;;;;;5032931;28;20037;-65
2022/07/13 10:02:03;;;;;;;4.55;1.30;;;29.90;66.60;;;;;;5021934;28;20071;-66
2022/07/13 10:04:30;;;;;;;2.58;1.30;;;30.10;68.40;;;;;;5054088;28;20132;-66
2022/07/13 10:06:56;;;;;;;5.32;1.30;;;29.30;67.00;;;;;;5031615;28;20132;-69
2022/07/13 10:09:31;;;;;;;4.00;1.17;;;28.50;67.50;;;;;;5013728;28;20053;-67
2022/07/13 10:11:58;;;;;;;5.15;1.23;;;28.40;67.80;;;;;;5031723;28;20041;-66
2022/07/13 10:14:26;;;;;;;3.70;1.30;;;28.50;68.00;;;;;;5028617;28;20076;-65
2022/07/13 10:16:58;;;;;;;3.47;0.85;;;29.10;68.20;;;;;;5012304;28;20049;-65
2022/07/13 10:19:24;;;;;;;4.60;1.40;;;29.30;67.00;;;;;;5013124;28;20116;-66
2022/07/13 10:22:17;;;;;;;6.05;1.70;;;29.00;69.50;;;;;;5028475;28;20050;-65
2022/07/13 10:24:55;;;;;;;2.75;1.48;;;29.50;68.10;;;;;;5029768;28;20077;-66
2022/07/13 10:27:27;;;;;;;4.45;1.20;;;28.80;66.20;;;;;;5030573;28;20055;-67
2022/07/13 10:30:06;;;;;;;2.47;1.10;;;28.60;67.10;;;;;;5030946;28;20044;-68
2022/07/13 10:32:35;;;;;;;3.80;0.93;;;28.40;66.10;;;;;;5031388;28;20124;-66
2022/07/13 10:35:11;;;;;;;2.47;1.40;;;28.70;66.90;;;;;;5031736;28;20037;-67
2022/07/13 10:37:58;;;;;;;2.38;1.20;;;28.30;67.10;;;;;;5031714;28;20041;-65
2022/07/13 10:40:30;;;;;;;2.67;1.27;;;29.40;67.60;;;;;;5031099;28;21097;-66
2022/07/13 10:42:57;;;;;;;1.13;0.93;;;29.50;67.30;;;;;;5031570;28;20084;-66
2022/07/13 10:45:38;;;;;;;2.80;1.15;;;30.00;65.90;;;;;;5031022;28;20488;-66
2022/07/13 10:48:10;;;;;;;2.72;0.98;;;29.60;65.50;;;;;;5026347;28;20053;-67
2022/07/13 10:50:46;;;;;;;1.80;1.20;;;29.10;66.40;;;;;;5030155;28;20535;-70
2022/07/13 10:53:15;;;;;;;1.73;1.08;;;29.20;68.20;;;;;;5030306;28;20555;-66
2022/07/13 10:55:50;;;;;;;2.55;1.30;;;29.40;65.00;;;;;;5030985;28;20574;-67
2022/07/13 10:58:31;;;;;;;3.28;1.17;;;29.30;66.10;;;;;;5030885;28;20464;-66
2022/07/13 11:01:01;;;;;;;4.43;1.40;;;29.90;66.50;;;;;;5031068;28;20057;-67
2022/07/13 11:03:37;;;;;;;2.05;1.10;;;30.10;65.90;;;;;;5030251;28;20071;-68
2022/07/13 11:06:12;;;;;;;2.17;1.15;;;29.20;65.70;;;;;;5031564;28;20045;-68
2022/07/13 11:08:38;;;;;;;1.67;1.27;;;29.60;66.50;;;;;;5031090;28;20092;-69
2022/07/13 11:11:16;;;;;;;4.72;1.35;;;29.70;66.80;;;;;;5028135;28;20046;-68
2022/07/13 11:13:46;;;;;;;2.20;1.20;;;29.90;66.90;;;;;;5019893;28;20037;-69
2022/07/13 11:16:13;;;;;;;3.15;1.02;;;29.30;67.10;;;;;;5030873;28;20049;-72
2022/07/13 11:18:41;;;;;;;1.60;1.35;;;29.50;66.60;;;;;;5030958;28;20037;-70
2022/07/13 11:21:16;;;;;;;4.03;1.10;;;29.40;65.00;;;;;;5030457;28;20072;-71
2022/07/13 11:26:59;;;;;;;2.67;1.65;;;29.40;66.10;;;;;;5030718;28;20459;-71
2022/07/13 11:29:43;;;;;;;3.88;1.15;;;29.80;68.60;;;;;;5032003;28;20057;-73
2022/07/13 11:32:10;;;;;;;1.92;1.10;;;30.30;67.40;;;;;;5029905;28;20123;-73
2022/07/13 11:34:37;;;;;;;1.63;1.00;;;30.30;65.60;;;;;;5013017;28;20037;-72
2022/07/13 11:37:04;;;;;;;1.73;1.10;;;30.20;65.10;;;;;;5013865;28;20041;-72
2022/07/13 11:39:33;;;;;;;2.65;1.25;;;29.60;65.10;;;;;;5036919;28;20069;-73
2022/07/13 11:42:01;;;;;;;3.72;1.35;;;29.50;65.00;;;;;;5014984;28;20041;-73
2022/07/13 11:44:32;;;;;;;3.55;0.90;;;29.80;65.10;;;;;;5050271;28;20044;-72
2022/07/13 11:47:01;;;;;;;3.92;1.30;;;30.10;66.10;;;;;;5050704;28;20094;-71
2022/07/13 11:49:41;;;;;;;5.20;1.15;;;30.30;65.30;;;;;;5052123;28;20045;-71
2022/07/13 11:52:07;;;;;;;1.60;1.10;;;30.40;66.90;;;;;;5034770;28;20076;-73
2022/07/13 11:54:32;;;;;;;6.97;1.27;;;30.10;64.20;;;;;;5051544;28;20071;-72
2022/07/13 11:56:59;;;;;;;1.77;1.10;;;30.10;65.60;;;;;;5050087;28;20076;-72
2022/07/13 11:59:44;;;;;;;2.90;1.08;;;29.90;64.40;;;;;;5032557;28;20067;-71
2022/07/13 12:02:12;;;;;;;2.60;1.38;;;30.00;65.40;;;;;;5050042;28;20102;-72
2022/07/13 12:04:48;;;;;;;2.15;1.10;;;29.80;62.80;;;;;;5050375;28;20111;-71
2022/07/13 12:07:18;;;;;;;1.80;1.20;;;29.90;64.30;;;;;;5044893;28;20045;-72
2022/07/13 12:10:06;;;;;;;4.93;1.27;;;30.30;65.80;;;;;;5030555;28;20084;-72
2022/07/13 12:12:36;;;;;;;3.30;1.05;;;30.60;64.30;;;;;;5037748;28;20040;-72
2022/07/13 12:15:03;;;;;;;3.67;1.40;;;30.10;63.40;;;;;;5016061;28;20420;-72
2022/07/13 12:17:40;;;;;;;1.75;0.88;;;30.50;65.20;;;;;;5030233;28;20587;-71
2022/07/13 12:20:21;;;;;;;1.50;0.90;;;30.40;62.60;;;;;;5031215;28;20052;-72
2022/07/13 12:22:55;;;;;;;2.00;1.15;;;30.30;64.10;;;;;;5030361;28;20049;-72
2022/07/13 12:25:28;;;;;;;3.15;1.20;;;29.70;62.50;;;;;;5013806;28;20033;-73
2022/07/13 12:27:55;;;;;;;5.05;1.00;;;29.50;63.40;;;;;;5034134;28;20049;-73
2022/07/13 12:30:20;;;;;;;1.75;1.15;;;30.00;65.30;;;;;;5033841;28;20037;-73
2022/07/13 12:33:03;;;;;;;3.00;1.30;;;30.20;65.00;;;;;;5033670;28;20037;-71
2022/07/13 12:35:30;;;;;;;3.63;1.30;;;30.60;66.50;;;;;;5033554;28;20057;-72
2022/07/13 12:37:58;;;;;;;1.30;0.93;;;30.40;64.90;;;;;;5032455;28;20393;-73
2022/07/13 12:40:51;;;;;;;1.67;1.08;;;30.50;65.50;;;;;;5014977;28;20037;-71
2022/07/13 12:43:24;;;;;;;2.42;1.20;;;30.30;64.50;;;;;;5036329;28;20053;-72
2022/07/13 12:45:52;;;;;;;3.83;1.08;;;29.80;64.40;;;;;;5044404;28;20052;-72
2022/07/13 12:48:22;;;;;;;1.80;1.23;;;29.90;64.70;;;;;;5035631;28;20060;-72
2022/07/13 12:50:58;;;;;;;3.38;1.30;;;29.90;64.50;;;;;;5035790;28;20511;-72
2022/07/13 12:53:25;;;;;;;4.53;1.20;;;29.60;63.50;;;;;;5053495;28;20633;-72
2022/07/13 12:55:53;;;;;;;2.13;1.10;;;29.90;64.30;;;;;;5052880;28;20044;-71
2022/07/13 12:58:19;;;;;;;4.68;1.33;;;30.50;65.30;;;;;;5035202;28;20048;-72
2022/07/13 13:00:45;;;;;;;3.28;1.17;;;30.30;65.20;;;;;;5037430;28;20133;-71
2022/07/13 13:03:11;;;;;;;1.25;1.02;;;30.40;64.70;;;;;;5054454;28;20040;-71